sensor_id;sensor_type;location;lat;lon;timestamp;P1;durP1;ratioP1;P2;durP2;ratioP2
3095;SDS011;1558;42.700;23.360;2022-12-18T00:00:05;12.93;;;11.73;;
3095;SDS011;1558;42.700;23.360;2022-12-18T00:02:33;13.60;;;12.30;;
3095;SDS011;1558;42.700;23.360;2022-12-18T00:05:01;12.77;;;11.57;;
3095;SDS011;1558;42.700;23.360;2022-12-18T00:07:29;13.77;;;12.40;;
3095;SDS011;1558;42.700;23.360;2022-12-18T00:09:57;12.70;;;11.40;;
3095;SDS011;1558;42.700;23.360;2022-12-18T00:12:25;13.83;;;12.50;;
3095;SDS011;1558;42.700;23.360;2022-12-18T00:14:55;12.73;;;11.60;;
3095;SDS011;1558;42.700;23.360;2022-12-18T00:17:24;13.03;;;11.83;;
3095;SDS011;1558;42.700;23.360;2022-12-18T00:19:52;13.90;;;12.60;;
3095;SDS011;1558;42.700;23.360;2022-12-18T00:22:20;13.93;;;12.47;;
3095;SDS011;1558;42.700;23.360;2022-12-18T00:24:48;12.63;;;11.43;;
3095;SDS011;1558;42.700;23.360;2022-12-18T00:27:16;13.93;;;12.63;;
3095;SDS011;1558;42.700;23.360;2022-12-18T00:29:44;14.27;;;12.87;;
3095;SDS011;1558;42.700;23.360;2022-12-18T00:32:12;14.20;;;12.80;;
3095;SDS011;1558;42.700;23.360;2022-12-18T00:34:41;14.20;;;12.90;;
3095;SDS011;1558;42.700;23.360;2022-12-18T00:37:09;14.00;;;12.60;;
3095;SDS011;1558;42.700;23.360;2022-12-18T00:39:43;14.80;;;13.30;;
3095;SDS011;1558;42.700;23.360;2022-12-18T00:42:11;14.90;;;13.00;;
3095;SDS011;1558;42.700;23.360;2022-12-18T00:44:57;14.70;;;13.30;;
3095;SDS011;1558;42.700;23.360;2022-12-18T00:47:25;14.97;;;13.57;;
3095;SDS011;1558;42.700;23.360;2022-12-18T00:49:54;13.50;;;12.10;;
3095;SDS011;1558;42.700;23.360;2022-12-18T00:52:22;13.97;;;12.67;;
3095;SDS011;1558;42.700;23.360;2022-12-18T00:54:50;13.90;;;12.60;;
3095;SDS011;1558;42.700;23.360;2022-12-18T00:57:18;13.90;;;12.60;;
3095;SDS011;1558;42.700;23.360;2022-12-18T00:59:45;14.13;;;12.83;;
3095;SDS011;1558;42.700;23.360;2022-12-18T01:02:13;14.20;;;12.87;;
3095;SDS011;1558;42.700;23.360;2022-12-18T01:04:41;14.90;;;13.50;;
3095;SDS011;1558;42.700;23.360;2022-12-18T01:07:10;13.67;;;12.27;;
3095;SDS011;1558;42.700;23.360;2022-12-18T01:09:38;14.50;;;13.20;;
3095;SDS011;1558;42.700;23.360;2022-12-18T01:12:06;14.70;;;13.20;;
3095;SDS011;1558;42.700;23.360;2022-12-18T01:14:34;14.60;;;13.20;;
3095;SDS011;1558;42.700;23.360;2022-12-18T01:17:02;14.17;;;12.77;;
3095;SDS011;1558;42.700;23.360;2022-12-18T01:19:30;14.87;;;13.37;;
3095;SDS011;1558;42.700;23.360;2022-12-18T01:21:58;14.90;;;13.43;;
3095;SDS011;1558;42.700;23.360;2022-12-18T01:24:27;15.17;;;13.67;;
3095;SDS011;1558;42.700;23.360;2022-12-18T01:26:55;15.30;;;13.80;;
3095;SDS011;1558;42.700;23.360;2022-12-18T01:29:24;14.43;;;13.07;;
3095;SDS011;1558;42.700;23.360;2022-12-18T01:31:54;14.93;;;13.43;;
3095;SDS011;1558;42.700;23.360;2022-12-18T01:34:22;14.50;;;13.10;;
3095;SDS011;1558;42.700;23.360;2022-12-18T01:36:51;15.27;;;13.77;;
3095;SDS011;1558;42.700;23.360;2022-12-18T01:39:19;14.33;;;12.90;;
3095;SDS011;1558;42.700;23.360;2022-12-18T01:41:48;15.93;;;13.83;;
3095;SDS011;1558;42.700;23.360;2022-12-18T01:47:40;15.30;;;13.80;;
3095;SDS011;1558;42.700;23.360;2022-12-18T01:50:13;13.63;;;12.30;;
3095;SDS011;1558;42.700;23.360;2022-12-18T01:52:46;15.13;;;13.53;;
3095;SDS011;1558;42.700;23.360;2022-12-18T01:55:16;14.43;;;12.87;;
3095;SDS011;1558;42.700;23.360;2022-12-18T01:57:47;14.47;;;12.93;;
3095;SDS011;1558;42.700;23.360;2022-12-18T02:00:20;14.10;;;12.57;;
3095;SDS011;1558;42.700;23.360;2022-12-18T02:02:49;14.43;;;13.03;;
3095;SDS011;1558;42.700;23.360;2022-12-18T02:05:19;14.90;;;13.40;;
3095;SDS011;1558;42.700;23.360;2022-12-18T02:07:58;13.37;;;12.07;;
3095;SDS011;1558;42.700;23.360;2022-12-18T02:10:38;14.17;;;12.87;;
3095;SDS011;1558;42.700;23.360;2022-12-18T02:13:17;12.97;;;11.67;;
3095;SDS011;1558;42.700;23.360;2022-12-18T02:15:51;14.83;;;13.23;;
3095;SDS011;1558;42.700;23.360;2022-12-18T02:18:26;13.53;;;12.13;;
3095;SDS011;1558;42.700;23.360;2022-12-18T02:20:58;14.17;;;12.03;;
3095;SDS011;1558;42.700;23.360;2022-12-18T02:23:39;12.47;;;11.27;;
3095;SDS011;1558;42.700;23.360;2022-12-18T02:26:17;11.83;;;10.70;;
3095;SDS011;1558;42.700;23.360;2022-12-18T02:28:49;12.70;;;11.40;;
3095;SDS011;1558;42.700;23.360;2022-12-18T02:31:21;12.47;;;11.10;;
3095;SDS011;1558;42.700;23.360;2022-12-18T02:33:53;12.60;;;11.40;;
3095;SDS011;1558;42.700;23.360;2022-12-18T02:36:23;12.37;;;11.17;;
3095;SDS011;1558;42.700;23.360;2022-12-18T02:38:54;12.30;;;11.20;;
3095;SDS011;1558;42.700;23.360;2022-12-18T02:41:25;12.37;;;11.17;;
3095;SDS011;1558;42.700;23.360;2022-12-18T02:43:55;11.20;;;10.20;;
3095;SDS011;1558;42.700;23.360;2022-12-18T02:46:31;12.20;;;11.10;;
3095;SDS011;1558;42.700;23.360;2022-12-18T02:49:06;11.70;;;10.60;;
3095;SDS011;1558;42.700;23.360;2022-12-18T02:51:48;11.90;;;10.70;;
3095;SDS011;1558;42.700;23.360;2022-12-18T02:54:25;11.07;;;10.07;;
3095;SDS011;1558;42.700;23.360;2022-12-18T02:57:08;10.83;;;9.73;;
3095;SDS011;1558;42.700;23.360;2022-12-18T02:59:45;12.27;;;11.07;;
3095;SDS011;1558;42.700;23.360;2022-12-18T03:02:21;12.53;;;11.37;;
3095;SDS011;1558;42.700;23.360;2022-12-18T03:04:55;12.20;;;11.10;;
3095;SDS011;1558;42.700;23.360;2022-12-18T03:07:33;11.30;;;10.10;;
3095;SDS011;1558;42.700;23.360;2022-12-18T03:10:06;12.50;;;11.30;;
3095;SDS011;1558;42.700;23.360;2022-12-18T03:12:41;13.17;;;11.87;;
3095;SDS011;1558;42.700;23.360;2022-12-18T03:15:13;13.47;;;12.17;;
3095;SDS011;1558;42.700;23.360;2022-12-18T03:17:48;11.53;;;10.43;;
3095;SDS011;1558;42.700;23.360;2022-12-18T03:20:21;13.73;;;12.20;;
3095;SDS011;1558;42.700;23.360;2022-12-18T03:22:59;14.80;;;13.13;;
3095;SDS011;1558;42.700;23.360;2022-12-18T03:25:31;13.27;;;11.87;;
3095;SDS011;1558;42.700;23.360;2022-12-18T03:28:04;12.40;;;11.10;;
3095;SDS011;1558;42.700;23.360;2022-12-18T03:30:35;12.87;;;11.43;;
3095;SDS011;1558;42.700;23.360;2022-12-18T03:33:08;12.93;;;11.63;;
3095;SDS011;1558;42.700;23.360;2022-12-18T03:35:41;12.30;;;11.07;;
3095;SDS011;1558;42.700;23.360;2022-12-18T03:38:10;11.63;;;10.43;;
3095;SDS011;1558;42.700;23.360;2022-12-18T03:40:42;12.07;;;10.87;;
3095;SDS011;1558;42.700;23.360;2022-12-18T03:43:20;11.10;;;9.87;;
3095;SDS011;1558;42.700;23.360;2022-12-18T03:46:02;11.97;;;10.80;;
3095;SDS011;1558;42.700;23.360;2022-12-18T03:48:36;12.00;;;10.87;;
3095;SDS011;1558;42.700;23.360;2022-12-18T03:51:10;11.87;;;10.73;;
3095;SDS011;1558;42.700;23.360;2022-12-18T03:53:43;12.33;;;11.13;;
3095;SDS011;1558;42.700;23.360;2022-12-18T03:56:18;12.40;;;11.10;;
3095;SDS011;1558;42.700;23.360;2022-12-18T03:58:51;12.00;;;10.87;;
3095;SDS011;1558;42.700;23.360;2022-12-18T04:01:22;12.87;;;11.63;;
3095;SDS011;1558;42.700;23.360;2022-12-18T04:03:55;13.30;;;10.97;;
3095;SDS011;1558;42.700;23.360;2022-12-18T04:06:26;12.57;;;11.27;;
3095;SDS011;1558;42.700;23.360;2022-12-18T04:08:56;12.33;;;11.13;;
3095;SDS011;1558;42.700;23.360;2022-12-18T04:11:25;13.70;;;12.30;;
3095;SDS011;1558;42.700;23.360;2022-12-18T04:13:56;13.70;;;12.30;;
3095;SDS011;1558;42.700;23.360;2022-12-18T04:16:28;13.70;;;12.30;;
3095;SDS011;1558;42.700;23.360;2022-12-18T04:18:56;13.97;;;12.37;;
3095;SDS011;1558;42.700;23.360;2022-12-18T04:21:24;14.20;;;12.83;;
3095;SDS011;1558;42.700;23.360;2022-12-18T04:23:52;14.30;;;12.83;;
3095;SDS011;1558;42.700;23.360;2022-12-18T04:26:20;14.47;;;12.33;;
3095;SDS011;1558;42.700;23.360;2022-12-18T04:28:47;14.60;;;13.07;;
3095;SDS011;1558;42.700;23.360;2022-12-18T04:31:17;13.93;;;12.43;;
3095;SDS011;1558;42.700;23.360;2022-12-18T04:33:45;14.17;;;12.70;;
3095;SDS011;1558;42.700;23.360;2022-12-18T04:36:13;15.40;;;13.83;;
3095;SDS011;1558;42.700;23.360;2022-12-18T04:38:41;13.93;;;12.47;;
3095;SDS011;1558;42.700;23.360;2022-12-18T04:41:08;14.33;;;12.43;;
3095;SDS011;1558;42.700;23.360;2022-12-18T04:43:39;13.50;;;12.13;;
3095;SDS011;1558;42.700;23.360;2022-12-18T04:46:08;14.27;;;12.83;;
3095;SDS011;1558;42.700;23.360;2022-12-18T04:48:37;15.13;;;13.23;;
3095;SDS011;1558;42.700;23.360;2022-12-18T04:51:05;16.13;;;14.53;;
3095;SDS011;1558;42.700;23.360;2022-12-18T04:53:34;14.97;;;13.47;;
3095;SDS011;1558;42.700;23.360;2022-12-18T04:56:06;14.57;;;13.00;;
3095;SDS011;1558;42.700;23.360;2022-12-18T04:58:36;17.67;;;14.20;;
3095;SDS011;1558;42.700;23.360;2022-12-18T05:01:05;16.27;;;14.53;;
3095;SDS011;1558;42.700;23.360;2022-12-18T05:03:34;15.97;;;14.27;;
3095;SDS011;1558;42.700;23.360;2022-12-18T05:06:06;15.80;;;13.70;;
3095;SDS011;1558;42.700;23.360;2022-12-18T05:08:35;15.70;;;13.03;;
3095;SDS011;1558;42.700;23.360;2022-12-18T05:11:04;16.60;;;13.70;;
3095;SDS011;1558;42.700;23.360;2022-12-18T05:13:33;16.70;;;13.47;;
3095;SDS011;1558;42.700;23.360;2022-12-18T05:16:02;16.53;;;14.67;;
3095;SDS011;1558;42.700;23.360;2022-12-18T05:18:31;17.27;;;15.47;;
3095;SDS011;1558;42.700;23.360;2022-12-18T05:20:59;16.20;;;14.40;;
3095;SDS011;1558;42.700;23.360;2022-12-18T05:23:28;16.47;;;14.77;;
3095;SDS011;1558;42.700;23.360;2022-12-18T05:25:57;18.63;;;15.30;;
3095;SDS011;1558;42.700;23.360;2022-12-18T05:28:27;17.97;;;15.03;;
3095;SDS011;1558;42.700;23.360;2022-12-18T05:30:58;17.00;;;15.17;;
3095;SDS011;1558;42.700;23.360;2022-12-18T05:33:28;18.80;;;14.93;;
3095;SDS011;1558;42.700;23.360;2022-12-18T05:35:58;17.83;;;14.67;;
3095;SDS011;1558;42.700;23.360;2022-12-18T05:38:35;17.50;;;14.73;;
3095;SDS011;1558;42.700;23.360;2022-12-18T05:41:04;17.43;;;15.50;;
3095;SDS011;1558;42.700;23.360;2022-12-18T05:43:33;17.37;;;15.10;;
3095;SDS011;1558;42.700;23.360;2022-12-18T05:46:03;19.07;;;14.70;;
3095;SDS011;1558;42.700;23.360;2022-12-18T05:48:32;18.03;;;15.00;;
3095;SDS011;1558;42.700;23.360;2022-12-18T05:51:04;19.90;;;14.77;;
3095;SDS011;1558;42.700;23.360;2022-12-18T05:53:35;18.37;;;16.10;;
3095;SDS011;1558;42.700;23.360;2022-12-18T05:56:04;18.57;;;16.40;;
3095;SDS011;1558;42.700;23.360;2022-12-18T05:58:34;19.17;;;14.70;;
3095;SDS011;1558;42.700;23.360;2022-12-18T06:01:08;17.87;;;15.67;;
3095;SDS011;1558;42.700;23.360;2022-12-18T06:03:37;18.10;;;15.80;;
3095;SDS011;1558;42.700;23.360;2022-12-18T06:06:12;20.47;;;16.20;;
3095;SDS011;1558;42.700;23.360;2022-12-18T06:08:42;20.00;;;16.17;;
3095;SDS011;1558;42.700;23.360;2022-12-18T06:11:12;18.83;;;16.33;;
3095;SDS011;1558;42.700;23.360;2022-12-18T06:13:40;18.57;;;15.07;;
3095;SDS011;1558;42.700;23.360;2022-12-18T06:16:08;18.27;;;14.87;;
3095;SDS011;1558;42.700;23.360;2022-12-18T06:18:37;17.83;;;15.17;;
3095;SDS011;1558;42.700;23.360;2022-12-18T06:21:05;17.30;;;14.50;;
3095;SDS011;1558;42.700;23.360;2022-12-18T06:23:33;17.00;;;15.20;;
3095;SDS011;1558;42.700;23.360;2022-12-18T06:26:07;18.40;;;15.07;;
3095;SDS011;1558;42.700;23.360;2022-12-18T06:28:36;18.43;;;16.17;;
3095;SDS011;1558;42.700;23.360;2022-12-18T06:31:04;16.83;;;14.87;;
3095;SDS011;1558;42.700;23.360;2022-12-18T06:33:33;18.00;;;14.70;;
3095;SDS011;1558;42.700;23.360;2022-12-18T06:36:02;19.57;;;15.93;;
3095;SDS011;1558;42.700;23.360;2022-12-18T06:38:32;18.90;;;15.23;;
3095;SDS011;1558;42.700;23.360;2022-12-18T06:41:00;17.13;;;13.63;;
3095;SDS011;1558;42.700;23.360;2022-12-18T06:43:35;17.57;;;13.97;;
3095;SDS011;1558;42.700;23.360;2022-12-18T06:46:04;18.20;;;15.50;;
3095;SDS011;1558;42.700;23.360;2022-12-18T06:48:32;18.63;;;14.73;;
3095;SDS011;1558;42.700;23.360;2022-12-18T06:51:01;17.10;;;13.97;;
3095;SDS011;1558;42.700;23.360;2022-12-18T06:53:29;19.00;;;15.33;;
3095;SDS011;1558;42.700;23.360;2022-12-18T06:56:02;17.57;;;15.63;;
3095;SDS011;1558;42.700;23.360;2022-12-18T06:58:37;19.37;;;15.97;;
3095;SDS011;1558;42.700;23.360;2022-12-18T07:01:06;18.03;;;15.87;;
3095;SDS011;1558;42.700;23.360;2022-12-18T07:03:36;17.10;;;15.30;;
3095;SDS011;1558;42.700;23.360;2022-12-18T07:06:05;17.80;;;14.67;;
3095;SDS011;1558;42.700;23.360;2022-12-18T07:08:33;17.00;;;14.40;;
3095;SDS011;1558;42.700;23.360;2022-12-18T07:11:02;17.67;;;15.20;;
3095;SDS011;1558;42.700;23.360;2022-12-18T07:13:31;17.20;;;14.97;;
3095;SDS011;1558;42.700;23.360;2022-12-18T07:16:08;16.83;;;15.03;;
3095;SDS011;1558;42.700;23.360;2022-12-18T07:18:46;18.77;;;14.10;;
3095;SDS011;1558;42.700;23.360;2022-12-18T07:21:15;18.90;;;15.23;;
3095;SDS011;1558;42.700;23.360;2022-12-18T07:23:45;18.47;;;15.17;;
3095;SDS011;1558;42.700;23.360;2022-12-18T07:26:15;17.20;;;14.17;;
3095;SDS011;1558;42.700;23.360;2022-12-18T07:28:46;17.63;;;15.53;;
3095;SDS011;1558;42.700;23.360;2022-12-18T07:31:16;19.50;;;15.80;;
3095;SDS011;1558;42.700;23.360;2022-12-18T07:33:46;22.00;;;16.87;;
3095;SDS011;1558;42.700;23.360;2022-12-18T07:36:15;20.80;;;16.50;;
3095;SDS011;1558;42.700;23.360;2022-12-18T07:38:46;21.50;;;17.33;;
3095;SDS011;1558;42.700;23.360;2022-12-18T07:41:14;18.53;;;15.87;;
3095;SDS011;1558;42.700;23.360;2022-12-18T07:43:42;19.63;;;15.37;;
3095;SDS011;1558;42.700;23.360;2022-12-18T07:46:10;21.00;;;16.37;;
3095;SDS011;1558;42.700;23.360;2022-12-18T07:48:42;20.87;;;17.23;;
3095;SDS011;1558;42.700;23.360;2022-12-18T07:51:14;19.37;;;16.47;;
3095;SDS011;1558;42.700;23.360;2022-12-18T07:53:43;21.60;;;17.17;;
3095;SDS011;1558;42.700;23.360;2022-12-18T07:56:11;21.30;;;16.87;;
3095;SDS011;1558;42.700;23.360;2022-12-18T07:58:56;22.73;;;18.03;;
3095;SDS011;1558;42.700;23.360;2022-12-18T08:01:26;22.10;;;18.33;;
3095;SDS011;1558;42.700;23.360;2022-12-18T08:03:56;22.23;;;17.23;;
3095;SDS011;1558;42.700;23.360;2022-12-18T08:06:25;22.07;;;16.83;;
3095;SDS011;1558;42.700;23.360;2022-12-18T08:08:53;20.60;;;17.53;;
3095;SDS011;1558;42.700;23.360;2022-12-18T08:11:22;21.10;;;18.10;;
3095;SDS011;1558;42.700;23.360;2022-12-18T08:13:52;21.60;;;18.03;;
3095;SDS011;1558;42.700;23.360;2022-12-18T08:16:21;22.07;;;18.00;;
3095;SDS011;1558;42.700;23.360;2022-12-18T08:18:51;21.53;;;17.70;;
3095;SDS011;1558;42.700;23.360;2022-12-18T08:21:21;23.03;;;19.53;;
3095;SDS011;1558;42.700;23.360;2022-12-18T08:23:51;22.97;;;18.53;;
3095;SDS011;1558;42.700;23.360;2022-12-18T08:26:21;21.93;;;18.40;;
3095;SDS011;1558;42.700;23.360;2022-12-18T08:28:49;21.63;;;17.23;;
3095;SDS011;1558;42.700;23.360;2022-12-18T08:31:18;19.90;;;17.80;;
3095;SDS011;1558;42.700;23.360;2022-12-18T08:33:48;21.00;;;16.40;;
3095;SDS011;1558;42.700;23.360;2022-12-18T08:36:16;22.10;;;18.27;;
3095;SDS011;1558;42.700;23.360;2022-12-18T08:38:45;22.63;;;19.87;;
3095;SDS011;1558;42.700;23.360;2022-12-18T08:41:14;22.53;;;17.30;;
3095;SDS011;1558;42.700;23.360;2022-12-18T08:43:43;22.20;;;17.63;;
3095;SDS011;1558;42.700;23.360;2022-12-18T08:46:31;21.27;;;17.67;;
3095;SDS011;1558;42.700;23.360;2022-12-18T08:49:01;20.33;;;16.90;;
3095;SDS011;1558;42.700;23.360;2022-12-18T08:51:29;20.30;;;16.03;;
3095;SDS011;1558;42.700;23.360;2022-12-18T08:53:59;20.50;;;16.40;;
3095;SDS011;1558;42.700;23.360;2022-12-18T08:56:28;20.97;;;16.60;;
3095;SDS011;1558;42.700;23.360;2022-12-18T08:58:57;21.60;;;17.80;;
3095;SDS011;1558;42.700;23.360;2022-12-18T09:01:25;20.63;;;16.67;;
3095;SDS011;1558;42.700;23.360;2022-12-18T09:03:53;19.57;;;16.57;;
3095;SDS011;1558;42.700;23.360;2022-12-18T09:06:22;19.27;;;16.30;;
3095;SDS011;1558;42.700;23.360;2022-12-18T09:08:50;20.30;;;16.60;;
3095;SDS011;1558;42.700;23.360;2022-12-18T09:11:20;17.30;;;15.00;;
3095;SDS011;1558;42.700;23.360;2022-12-18T09:13:50;22.57;;;17.03;;
3095;SDS011;1558;42.700;23.360;2022-12-18T09:16:18;19.53;;;15.63;;
3095;SDS011;1558;42.700;23.360;2022-12-18T09:18:50;20.13;;;16.37;;
3095;SDS011;1558;42.700;23.360;2022-12-18T09:21:20;19.03;;;15.63;;
3095;SDS011;1558;42.700;23.360;2022-12-18T09:23:48;22.37;;;17.10;;
3095;SDS011;1558;42.700;23.360;2022-12-18T09:26:17;17.73;;;15.70;;
3095;SDS011;1558;42.700;23.360;2022-12-18T09:28:46;20.50;;;16.00;;
3095;SDS011;1558;42.700;23.360;2022-12-18T09:31:14;17.70;;;14.77;;
3095;SDS011;1558;42.700;23.360;2022-12-18T09:33:43;17.90;;;15.67;;
3095;SDS011;1558;42.700;23.360;2022-12-18T09:36:13;20.03;;;16.20;;
3095;SDS011;1558;42.700;23.360;2022-12-18T09:38:43;18.43;;;15.83;;
3095;SDS011;1558;42.700;23.360;2022-12-18T09:41:17;22.57;;;16.63;;
3095;SDS011;1558;42.700;23.360;2022-12-18T09:44:05;17.40;;;15.23;;
3095;SDS011;1558;42.700;23.360;2022-12-18T09:46:43;20.60;;;17.03;;
3095;SDS011;1558;42.700;23.360;2022-12-18T09:49:14;20.20;;;16.83;;
3095;SDS011;1558;42.700;23.360;2022-12-18T09:51:47;20.37;;;16.30;;
3095;SDS011;1558;42.700;23.360;2022-12-18T09:54:21;18.50;;;15.37;;
3095;SDS011;1558;42.700;23.360;2022-12-18T09:56:54;17.03;;;14.97;;
3095;SDS011;1558;42.700;23.360;2022-12-18T09:59:24;17.83;;;15.17;;
3095;SDS011;1558;42.700;23.360;2022-12-18T10:01:58;16.83;;;14.17;;
3095;SDS011;1558;42.700;23.360;2022-12-18T10:04:26;18.43;;;14.70;;
3095;SDS011;1558;42.700;23.360;2022-12-18T10:06:59;18.70;;;15.80;;
3095;SDS011;1558;42.700;23.360;2022-12-18T10:09:37;17.63;;;14.77;;
3095;SDS011;1558;42.700;23.360;2022-12-18T10:12:12;19.63;;;15.87;;
3095;SDS011;1558;42.700;23.360;2022-12-18T10:14:49;17.97;;;15.60;;
3095;SDS011;1558;42.700;23.360;2022-12-18T10:17:25;20.27;;;16.00;;
3095;SDS011;1558;42.700;23.360;2022-12-18T10:20:05;18.90;;;15.47;;
3095;SDS011;1558;42.700;23.360;2022-12-18T10:22:43;18.37;;;15.37;;
3095;SDS011;1558;42.700;23.360;2022-12-18T10:25:21;19.97;;;16.83;;
3095;SDS011;1558;42.700;23.360;2022-12-18T10:27:53;18.10;;;15.70;;
3095;SDS011;1558;42.700;23.360;2022-12-18T10:30:26;19.03;;;15.43;;
3095;SDS011;1558;42.700;23.360;2022-12-18T10:32:54;18.70;;;15.60;;
3095;SDS011;1558;42.700;23.360;2022-12-18T10:35:28;21.13;;;15.70;;
3095;SDS011;1558;42.700;23.360;2022-12-18T10:38:00;20.33;;;16.30;;
3095;SDS011;1558;42.700;23.360;2022-12-18T10:40:30;18.43;;;15.57;;
3095;SDS011;1558;42.700;23.360;2022-12-18T10:43:03;18.40;;;16.00;;
3095;SDS011;1558;42.700;23.360;2022-12-18T10:45:35;19.03;;;15.43;;
3095;SDS011;1558;42.700;23.360;2022-12-18T10:48:03;19.10;;;15.80;;
3095;SDS011;1558;42.700;23.360;2022-12-18T10:50:32;20.73;;;16.30;;
3095;SDS011;1558;42.700;23.360;2022-12-18T10:53:25;18.97;;;16.20;;
3095;SDS011;1558;42.700;23.360;2022-12-18T10:55:57;19.33;;;16.23;;
3095;SDS011;1558;42.700;23.360;2022-12-18T10:58:30;19.70;;;16.07;;
3095;SDS011;1558;42.700;23.360;2022-12-18T11:01:05;18.80;;;16.10;;
3095;SDS011;1558;42.700;23.360;2022-12-18T11:03:38;20.93;;;17.00;;
3095;SDS011;1558;42.700;23.360;2022-12-18T11:06:09;21.47;;;16.10;;
3095;SDS011;1558;42.700;23.360;2022-12-18T11:08:38;18.13;;;15.13;;
3095;SDS011;1558;42.700;23.360;2022-12-18T11:11:14;20.93;;;16.50;;
3095;SDS011;1558;42.700;23.360;2022-12-18T11:13:51;17.53;;;15.17;;
3095;SDS011;1558;42.700;23.360;2022-12-18T11:16:33;19.23;;;15.80;;
3095;SDS011;1558;42.700;23.360;2022-12-18T11:19:09;18.73;;;15.80;;
3095;SDS011;1558;42.700;23.360;2022-12-18T11:21:47;18.30;;;16.23;;
3095;SDS011;1558;42.700;23.360;2022-12-18T11:24:19;18.37;;;15.13;;
3095;SDS011;1558;42.700;23.360;2022-12-18T11:26:58;20.10;;;15.57;;
3095;SDS011;1558;42.700;23.360;2022-12-18T11:29:31;21.33;;;16.23;;
3095;SDS011;1558;42.700;23.360;2022-12-18T11:32:24;17.73;;;14.70;;
3095;SDS011;1558;42.700;23.360;2022-12-18T11:34:59;19.70;;;15.77;;
3095;SDS011;1558;42.700;23.360;2022-12-18T11:37:32;22.03;;;16.07;;
3095;SDS011;1558;42.700;23.360;2022-12-18T11:40:01;17.83;;;14.73;;
3095;SDS011;1558;42.700;23.360;2022-12-18T11:42:35;21.73;;;16.47;;
3095;SDS011;1558;42.700;23.360;2022-12-18T11:45:14;17.33;;;15.27;;
3095;SDS011;1558;42.700;23.360;2022-12-18T11:47:54;19.87;;;15.27;;
3095;SDS011;1558;42.700;23.360;2022-12-18T11:50:28;21.33;;;16.63;;
3095;SDS011;1558;42.700;23.360;2022-12-18T11:52:59;20.67;;;16.23;;
3095;SDS011;1558;42.700;23.360;2022-12-18T11:55:34;18.10;;;15.30;;
3095;SDS011;1558;42.700;23.360;2022-12-18T11:58:11;22.60;;;17.27;;
3095;SDS011;1558;42.700;23.360;2022-12-18T12:00:46;18.57;;;16.30;;
3095;SDS011;1558;42.700;23.360;2022-12-18T12:03:27;18.07;;;16.00;;
3095;SDS011;1558;42.700;23.360;2022-12-18T12:06:10;17.43;;;14.60;;
3095;SDS011;1558;42.700;23.360;2022-12-18T12:08:49;19.70;;;15.70;;
3095;SDS011;1558;42.700;23.360;2022-12-18T12:11:31;19.83;;;15.93;;
3095;SDS011;1558;42.700;23.360;2022-12-18T12:14:12;19.40;;;14.97;;
3095;SDS011;1558;42.700;23.360;2022-12-18T12:16:50;21.90;;;17.00;;
3095;SDS011;1558;42.700;23.360;2022-12-18T12:19:29;19.13;;;15.50;;
3095;SDS011;1558;42.700;23.360;2022-12-18T12:22:08;17.97;;;15.37;;
3095;SDS011;1558;42.700;23.360;2022-12-18T12:24:47;20.33;;;15.83;;
3095;SDS011;1558;42.700;23.360;2022-12-18T12:27:25;18.93;;;16.00;;
3095;SDS011;1558;42.700;23.360;2022-12-18T12:30:04;21.07;;;16.37;;
3095;SDS011;1558;42.700;23.360;2022-12-18T12:32:44;19.10;;;15.13;;
3095;SDS011;1558;42.700;23.360;2022-12-18T12:35:25;21.23;;;15.17;;
3095;SDS011;1558;42.700;23.360;2022-12-18T12:38:05;18.67;;;14.87;;
3095;SDS011;1558;42.700;23.360;2022-12-18T12:40:39;17.90;;;15.03;;
3095;SDS011;1558;42.700;23.360;2022-12-18T12:43:27;19.87;;;15.13;;
3095;SDS011;1558;42.700;23.360;2022-12-18T12:46:00;19.67;;;15.63;;
3095;SDS011;1558;42.700;23.360;2022-12-18T12:48:35;17.77;;;14.90;;
3095;SDS011;1558;42.700;23.360;2022-12-18T12:51:12;17.87;;;15.97;;
3095;SDS011;1558;42.700;23.360;2022-12-18T12:53:45;17.53;;;14.83;;
3095;SDS011;1558;42.700;23.360;2022-12-18T12:56:14;20.70;;;15.60;;
3095;SDS011;1558;42.700;23.360;2022-12-18T12:58:48;22.23;;;17.13;;
3095;SDS011;1558;42.700;23.360;2022-12-18T13:01:25;20.07;;;16.37;;
3095;SDS011;1558;42.700;23.360;2022-12-18T13:04:08;19.27;;;15.73;;
3095;SDS011;1558;42.700;23.360;2022-12-18T13:06:50;18.30;;;15.73;;
3095;SDS011;1558;42.700;23.360;2022-12-18T13:09:29;19.37;;;15.30;;
3095;SDS011;1558;42.700;23.360;2022-12-18T13:12:02;18.37;;;15.03;;
3095;SDS011;1558;42.700;23.360;2022-12-18T13:14:49;22.07;;;19.60;;
3095;SDS011;1558;42.700;23.360;2022-12-18T13:17:28;25.13;;;20.07;;
3095;SDS011;1558;42.700;23.360;2022-12-18T13:20:06;22.20;;;17.83;;
3095;SDS011;1558;42.700;23.360;2022-12-18T13:22:42;18.93;;;16.80;;
3095;SDS011;1558;42.700;23.360;2022-12-18T13:25:28;23.80;;;18.30;;
3095;SDS011;1558;42.700;23.360;2022-12-18T13:28:00;20.43;;;17.90;;
3095;SDS011;1558;42.700;23.360;2022-12-18T13:30:41;22.57;;;17.20;;
3095;SDS011;1558;42.700;23.360;2022-12-18T13:33:36;20.00;;;17.80;;
3095;SDS011;1558;42.700;23.360;2022-12-18T13:36:32;22.20;;;17.30;;
3095;SDS011;1558;42.700;23.360;2022-12-18T13:39:22;21.00;;;16.93;;
3095;SDS011;1558;42.700;23.360;2022-12-18T13:45:35;21.37;;;16.93;;
3095;SDS011;1558;42.700;23.360;2022-12-18T13:48:20;22.57;;;17.67;;
3095;SDS011;1558;42.700;23.360;2022-12-18T13:50:55;17.50;;;15.23;;
3095;SDS011;1558;42.700;23.360;2022-12-18T13:53:26;23.07;;;17.77;;
3095;SDS011;1558;42.700;23.360;2022-12-18T13:55:59;20.37;;;16.80;;
3095;SDS011;1558;42.700;23.360;2022-12-18T13:58:27;22.53;;;17.73;;
3095;SDS011;1558;42.700;23.360;2022-12-18T14:00:55;20.77;;;18.23;;
3095;SDS011;1558;42.700;23.360;2022-12-18T14:03:26;20.37;;;17.23;;
3095;SDS011;1558;42.700;23.360;2022-12-18T14:06:00;20.60;;;16.40;;
3095;SDS011;1558;42.700;23.360;2022-12-18T14:08:34;20.10;;;16.67;;
3095;SDS011;1558;42.700;23.360;2022-12-18T14:11:08;20.50;;;16.83;;
3095;SDS011;1558;42.700;23.360;2022-12-18T14:13:47;19.70;;;16.10;;
3095;SDS011;1558;42.700;23.360;2022-12-18T14:16:16;20.00;;;16.40;;
3095;SDS011;1558;42.700;23.360;2022-12-18T14:18:45;18.53;;;16.17;;
3095;SDS011;1558;42.700;23.360;2022-12-18T14:21:20;19.10;;;15.47;;
3095;SDS011;1558;42.700;23.360;2022-12-18T14:24:02;18.77;;;15.70;;
3095;SDS011;1558;42.700;23.360;2022-12-18T14:26:32;20.77;;;16.73;;
3095;SDS011;1558;42.700;23.360;2022-12-18T14:29:01;18.03;;;15.53;;
3095;SDS011;1558;42.700;23.360;2022-12-18T14:32:03;20.87;;;15.80;;
3095;SDS011;1558;42.700;23.360;2022-12-18T14:34:40;21.13;;;16.20;;
3095;SDS011;1558;42.700;23.360;2022-12-18T14:37:09;21.73;;;17.30;;
3095;SDS011;1558;42.700;23.360;2022-12-18T14:39:37;22.30;;;16.53;;
3095;SDS011;1558;42.700;23.360;2022-12-18T14:42:10;21.90;;;16.90;;
3095;SDS011;1558;42.700;23.360;2022-12-18T14:44:38;18.67;;;15.13;;
3095;SDS011;1558;42.700;23.360;2022-12-18T14:47:26;20.73;;;16.00;;
3095;SDS011;1558;42.700;23.360;2022-12-18T14:49:54;22.03;;;17.07;;
3095;SDS011;1558;42.700;23.360;2022-12-18T14:52:23;23.27;;;16.53;;
3095;SDS011;1558;42.700;23.360;2022-12-18T14:54:55;21.87;;;15.13;;
3095;SDS011;1558;42.700;23.360;2022-12-18T14:57:24;27.60;;;20.13;;
3095;SDS011;1558;42.700;23.360;2022-12-18T15:00:03;22.73;;;14.60;;
3095;SDS011;1558;42.700;23.360;2022-12-18T15:02:34;18.73;;;15.03;;
3095;SDS011;1558;42.700;23.360;2022-12-18T15:05:05;20.60;;;15.47;;
3095;SDS011;1558;42.700;23.360;2022-12-18T15:07:44;16.33;;;13.73;;
3095;SDS011;1558;42.700;23.360;2022-12-18T15:10:14;18.30;;;14.33;;
3095;SDS011;1558;42.700;23.360;2022-12-18T15:12:45;17.67;;;13.73;;